Airfield :
LOGIN :

Register | Disclaimer

   EN    FR    IT 

 










Legend :    VFR   Marginal VFR   IFR   Intensive IFR   Very Intensive IFR
Visi :
Ceiling :
>= 8 km
>= 3000ft
5 to 8 km
1000 to 3000 ft
1500m to 5 km
500 to 1000 ft
800 to 1500m
200 to 500 ft
< 800m
< 200 ft
Symbols :   Thunderstorms  Fog  Heavy snow  Heavy precipitations  Wind > 20 kt
SIGMETs :     Misc.  Thunderstorms  Icing  Turbulence  Mountain Waves  Volcanic Ashes






- Airport Elevation : 325 ft
- IATA code : BES


LFRB - Brest

CURRENT METAR :
  • 152100Z AUTO 34011KT 9999 SCT028 SCT038 BKN044 08/05 Q1006 TEMPO 3000 SHRA SCT015TCU BKN039

EXPIRED METARs :
  • 152030Z AUTO 35010KT 9999 BKN047/// BKN070/// ///TCU 08/05 Q1006 TEMPO 3000 SHRA BKN010
  • 152000Z AUTO 35010KT 330V030 9999 FEW027/// SCT032/// BKN039/// ///TCU 08/05 Q1006 TEMPO SHRA BKN020
  • 151930Z AUTO 35012G23KT 5000 2100 +RA BR FEW020/// SCT026/// BKN032/// ///TCU 07/06 Q1006 TEMPO BKN020
  • 151900Z AUTO 33011KT 9999 -RA FEW027/// BKN035/// OVC045/// ///TCU 07/05 Q1006 TEMPO SHRA BKN020
  • 151830Z AUTO 33008KT 9999 FEW025/// SCT044/// ///TCU 07/04 Q1006 TEMPO SHRA BKN020

TAF AMD TAF LFRB
Valid from the 15 at 20:00 until the 17 at 00:00 UTC


152011Z 1520/1624 36010KT 9999 SCT016 BKN025
TEMPO 1520/1612 4000 SHRA SCT015TCU BKN039
PROB30
TEMPO 1521/1523 3000 SHRA BKN010
TEMPO 1606/1614 36015G25KT
ATIS : +33 2 98 32 02 71



MET'MAP, your aeronautical weather chart ! - Copyright ORBIFLY December 2007 - Disclaimer

ORBIFLY MET'MAP TEAM :

Programming & Development : Alexandra Zaïnal
Concept & Development : Baudouin d'Aumeries
Co-Development & Prog : Marc-Olivier Méhu
Technical & hardware support : Manuel Goepfert

Contact : metmap@orbifly.com




SOURCES & CREDITS :

   NOAA